Time;durP1;ratioP1;P1;durP2;ratioP2;P2;SDS_P1;SDS_P2;PMS_P1;PMS_P2;Temp;Humidity;BMP_temperature;BMP_pressure;BME280_temperature;BME280_humidity;BME280_pressure;Samples;Min_cycle;Max_cycle;Signal;HPM_P1;HPM_P2
2022/01/17 00:01:36;;;;;;;17.42;7.82;;;;;;;21.15;19.36;98303.88;4976116;28;20075;-80
2022/01/17 00:04:06;;;;;;;12.48;6.10;;;;;;;21.21;19.18;98309.81;4975706;28;20097;-80
2022/01/17 00:06:32;;;;;;;13.68;6.95;;;;;;;21.14;19.38;98305.06;4974867;28;20368;-80
2022/01/17 00:08:58;;;;;;;13.13;6.10;;;;;;;21.66;18.92;98305.84;4975667;28;20394;-80
2022/01/17 00:11:24;;;;;;;12.18;6.85;;;;;;;21.58;19.14;98301.56;4975719;28;20031;-80
2022/01/17 00:13:50;;;;;;;15.25;6.63;;;;;;;21.87;18.77;98300.13;4975258;28;20039;-80
2022/01/17 00:16:21;;;;;;;11.45;6.05;;;;;;;22.45;18.29;98285.09;4975283;28;20033;-80
2022/01/17 00:21:15;;;;;;;12.98;6.78;;;;;;;21.32;19.29;98280.59;4975379;28;19961;-80
2022/01/17 00:23:42;;;;;;;11.20;5.70;;;;;;;21.15;19.54;98281.53;4974385;28;20026;-80
2022/01/17 00:26:08;;;;;;;8.70;5.30;;;;;;;21.77;18.92;98275.03;4975238;28;20038;-80
2022/01/17 00:28:34;;;;;;;11.23;6.40;;;;;;;21.62;19.08;98276.38;4975140;28;20165;-80
2022/01/17 00:31:05;;;;;;;13.20;5.82;;;;;;;21.80;18.96;98274.19;4974989;28;20035;-80
2022/01/17 00:33:32;;;;;;;11.02;5.68;;;;;;;22.32;18.47;98278.47;4975484;28;20371;-80
2022/01/17 00:35:58;;;;;;;12.95;5.55;;;;;;;22.03;18.74;98264.00;4974901;28;20099;-80
2022/01/17 00:38:24;;;;;;;12.57;5.85;;;;;;;22.09;18.61;98267.16;4975081;28;20065;-80
2022/01/17 00:40:50;;;;;;;11.82;5.75;;;;;;;22.34;18.29;98270.44;4974910;28;20034;-80
2022/01/17 00:43:16;;;;;;;11.35;6.00;;;;;;;22.65;18.15;98271.28;4975125;28;20043;-80
2022/01/17 00:45:44;;;;;;;9.68;5.63;;;;;;;22.80;17.93;98269.88;4975241;28;20030;-80
2022/01/17 00:48:11;;;;;;;11.05;5.32;;;;;;;22.81;18.07;98265.88;4974852;28;20027;-80
2022/01/17 00:50:38;;;;;;;11.32;5.20;;;;;;;22.98;17.65;98258.44;4975125;28;20117;-80
2022/01/17 00:53:07;;;;;;;10.35;4.65;;;;;;;21.95;18.68;98262.50;4974898;28;20031;-80
2022/01/17 00:55:36;;;;;;;11.20;5.50;;;;;;;21.60;18.91;98260.03;4975048;28;20031;-80
2022/01/17 00:58:02;;;;;;;10.18;5.45;;;;;;;20.58;20.35;98269.84;4975056;28;20041;-80
2022/01/17 01:00:28;;;;;;;8.65;4.97;;;;;;;20.69;20.13;98250.28;4974653;28;20046;-80
2022/01/17 01:02:55;;;;;;;8.23;4.70;;;;;;;20.56;20.67;98249.19;4974645;28;20498;-80
2022/01/17 01:05:21;;;;;;;10.77;5.35;;;;;;;21.43;19.86;98249.78;4974125;28;20062;-80
2022/01/17 01:07:48;;;;;;;9.57;5.07;;;;;;;20.83;20.39;98246.63;4974934;28;20035;-80
2022/01/17 01:10:15;;;;;;;7.95;4.30;;;;;;;20.09;21.58;98258.09;4974399;28;20418;-80
2022/01/17 01:12:46;;;;;;;7.07;4.20;;;;;;;20.50;20.85;98236.84;4974454;28;20446;-80
2022/01/17 01:15:33;;;;;;;9.65;5.05;;;;;;;20.47;21.11;98238.44;4974748;28;20368;-80
2022/01/17 01:18:01;;;;;;;6.90;3.65;;;;;;;21.09;20.39;98229.31;4973529;28;20047;-80
2022/01/17 01:28:36;;;;;;;6.57;3.65;;;;;;;20.16;21.86;98211.47;4955062;29;20399;-80
2022/01/17 01:31:09;;;;;;;7.32;3.53;;;;;;;19.61;22.43;98221.56;4954948;29;20043;-80
2022/01/17 01:33:39;;;;;;;8.02;3.85;;;;;;;19.86;22.10;98194.47;4955438;29;20062;-80
2022/01/17 01:36:12;;;;;;;9.10;3.43;;;;;;;20.12;21.90;98193.97;4955702;29;20036;-80
2022/01/17 01:38:40;;;;;;;6.68;3.10;;;;;;;18.78;23.47;98205.28;4955329;29;20080;-80
2022/01/17 01:41:07;;;;;;;5.68;2.83;;;;;;;18.89;23.65;98205.28;4955192;29;20028;-80
2022/01/17 01:43:34;;;;;;;4.80;2.80;;;;;;;18.94;23.26;98188.19;4954916;28;20395;-80
2022/01/17 01:46:02;;;;;;;3.28;2.17;;;;;;;20.38;21.70;98193.47;4955311;29;20035;-80
2022/01/17 01:48:29;;;;;;;5.22;3.30;;;;;;;19.03;23.13;98197.75;4955134;29;20095;-80
2022/01/17 01:50:55;;;;;;;3.58;2.17;;;;;;;19.07;23.45;98189.38;4954776;28;20091;-80
2022/01/17 01:53:23;;;;;;;3.95;2.47;;;;;;;19.24;23.00;98178.25;4953630;29;20091;-80
2022/01/17 01:55:52;;;;;;;3.47;2.30;;;;;;;18.80;23.93;98174.28;4955158;29;20110;-80
2022/01/17 01:58:19;;;;;;;3.83;2.17;;;;;;;19.03;23.56;98161.56;4961305;28;20439;-79
2022/01/17 02:00:45;;;;;;;4.57;2.28;;;;;;;18.59;23.92;98152.81;4954760;29;20411;-80
2022/01/17 02:03:11;;;;;;;3.10;2.40;;;;;;;19.41;22.93;98151.63;4954634;28;20066;-80
2022/01/17 02:05:38;;;;;;;2.80;1.95;;;;;;;17.92;24.70;98138.72;4954818;29;20118;-80
2022/01/17 02:08:05;;;;;;;3.42;1.98;;;;;;;19.07;23.55;98137.31;4954720;29;20035;-80
2022/01/17 02:10:32;;;;;;;2.40;1.98;;;;;;;18.25;24.15;98124.50;4955085;29;20440;-80
2022/01/17 02:12:58;;;;;;;2.72;1.60;;;;;;;18.51;24.18;98117.81;4954651;29;20488;-80
2022/01/17 02:15:24;;;;;;;2.42;1.70;;;;;;;17.22;25.53;98103.81;4954568;29;20031;-78
2022/01/17 02:17:55;;;;;;;2.58;1.60;;;;;;;17.54;25.31;98108.78;4958667;28;20031;-80
2022/01/17 02:20:23;;;;;;;2.83;1.55;;;;;;;18.55;24.19;98122.19;4977838;28;20066;-80
2022/01/17 02:22:50;;;;;;;2.75;1.67;;;;;;;18.65;23.63;98109.50;4958245;29;20023;-80
2022/01/17 02:25:17;;;;;;;2.67;1.70;;;;;;;19.33;22.73;98111.03;4958106;29;20498;-80
2022/01/17 02:27:44;;;;;;;2.00;1.80;;;;;;;18.75;23.18;98105.94;4957559;29;20019;-80
2022/01/17 02:30:13;;;;;;;2.40;1.52;;;;;;;19.68;22.40;98099.81;4958196;29;20128;-80
2022/01/17 02:32:40;;;;;;;2.55;1.88;;;;;;;19.42;22.26;98105.09;4972444;28;20512;-80
2022/01/17 02:35:25;;;;;;;3.33;1.60;;;;;;;19.52;22.25;98081.97;4969207;28;20093;-80
2022/01/17 02:37:52;;;;;;;1.85;1.38;;;;;;;19.06;22.86;98082.06;4977484;28;20034;-80
2022/01/17 02:40:20;;;;;;;2.25;1.48;;;;;;;20.15;21.55;98070.50;4977117;28;20042;-80
2022/01/17 02:43:07;;;;;;;2.33;1.45;;;;;;;19.31;22.26;98066.88;4977081;28;20086;-80
2022/01/17 02:45:37;;;;;;;2.15;1.65;;;;;;;19.11;22.44;98062.19;4977264;28;20042;-80
2022/01/17 02:48:06;;;;;;;2.53;1.52;;;;;;;18.77;22.81;98059.03;4975172;28;20110;-80
2022/01/17 02:50:34;;;;;;;2.28;1.40;;;;;;;18.04;24.00;98059.78;4957620;29;20483;-80
2022/01/17 02:53:02;;;;;;;2.13;1.50;;;;;;;18.20;23.83;98055.44;4975347;28;20042;-80
2022/01/17 02:55:29;;;;;;;2.40;1.40;;;;;;;18.32;23.47;98041.13;4976818;28;20112;-80
2022/01/17 02:57:56;;;;;;;2.95;1.40;;;;;;;18.10;23.56;98038.75;4977389;28;20034;-80
2022/01/17 03:00:23;;;;;;;1.40;1.30;;;;;;;18.82;23.00;98028.03;4976831;28;20042;-80
2022/01/17 03:02:49;;;;;;;2.13;1.23;;;;;;;18.03;23.71;98036.75;4977237;28;20089;-80
2022/01/17 03:05:17;;;;;;;1.95;1.30;;;;;;;18.99;22.64;98037.56;4975610;28;20431;-80
2022/01/17 03:07:44;;;;;;;2.65;1.30;;;;;;;19.93;21.14;98030.81;4964181;28;20047;-80
2022/01/17 03:10:22;;;;;;;2.25;1.35;;;;;;;20.15;21.04;98039.03;4960436;28;20035;-80
2022/01/17 03:12:48;;;;;;;1.27;1.10;;;;;;;19.25;22.11;98037.88;4957376;29;20036;-80
2022/01/17 03:15:14;;;;;;;1.10;0.85;;;;;;;20.19;20.89;98034.22;4957220;29;20047;-80
2022/01/17 03:17:40;;;;;;;2.42;1.50;;;;;;;18.35;22.75;98045.91;4950061;28;20032;-81
2022/01/17 03:20:07;;;;;;;4.32;1.48;;;;;;;17.65;23.56;98038.25;4957384;29;20031;-80
2022/01/17 03:22:33;;;;;;;2.72;1.25;;;;;;;17.81;23.26;98035.09;4963255;28;20074;-80
2022/01/17 03:24:59;;;;;;;2.83;1.08;;;;;;;18.17;23.04;98025.66;4976459;28;20090;-80
2022/01/17 03:27:26;;;;;;;3.13;1.48;;;;;;;18.37;22.84;98026.06;4983085;28;20073;-80
2022/01/17 03:29:52;;;;;;;1.50;1.25;;;;;;;19.23;21.76;98019.97;4975029;28;20059;-80
2022/01/17 03:32:18;;;;;;;1.58;1.00;;;;;;;19.62;21.21;98017.88;4976214;28;20085;-80
2022/01/17 03:34:44;;;;;;;1.80;1.10;;;;;;;18.72;22.02;98022.50;4976170;28;20039;-80
2022/01/17 03:37:10;;;;;;;1.88;1.20;;;;;;;17.75;23.18;97993.06;4976115;28;20066;-80
2022/01/17 03:39:36;;;;;;;2.33;1.30;;;;;;;18.59;22.41;98025.69;4976162;28;20037;-80
2022/01/17 03:42:02;;;;;;;1.02;0.90;;;;;;;18.81;22.15;98025.69;4976135;28;20055;-80
2022/01/17 03:44:28;;;;;;;1.35;0.90;;;;;;;19.06;21.28;98018.88;4975809;28;20042;-80
2022/01/17 03:46:54;;;;;;;0.98;0.80;;;;;;;18.63;22.08;98018.13;4975946;28;20031;-80
2022/01/17 03:49:20;;;;;;;1.42;1.25;;;;;;;17.64;23.04;98008.13;4975924;28;20490;-80
2022/01/17 03:51:46;;;;;;;2.15;1.00;;;;;;;19.52;20.95;98009.56;4975794;28;20031;-80
2022/01/17 03:54:12;;;;;;;1.38;1.13;;;;;;;17.92;22.83;98011.72;4975570;28;20109;-80
2022/01/17 03:56:38;;;;;;;2.05;1.17;;;;;;;18.01;22.79;98010.56;4987552;28;20031;-80
2022/01/17 03:59:04;;;;;;;2.72;1.40;;;;;;;16.50;24.64;98008.66;4975557;28;20027;-80
2022/01/17 04:01:31;;;;;;;1.38;0.93;;;;;;;18.19;22.83;97994.69;4976253;28;20074;-80
2022/01/17 04:03:57;;;;;;;1.98;1.33;;;;;;;17.79;22.73;97979.19;4975844;28;20378;-79
2022/01/17 04:06:24;;;;;;;2.05;1.35;;;;;;;16.76;24.35;97988.25;4975711;28;20530;-80
2022/01/17 04:08:50;;;;;;;2.03;1.20;;;;;;;17.50;23.43;97988.59;4976161;28;20521;-80
2022/01/17 04:11:16;;;;;;;1.95;1.50;;;;;;;16.53;24.55;97975.47;4975421;28;20448;-80
2022/01/17 04:13:42;;;;;;;2.72;1.67;;;;;;;16.31;24.61;97995.84;4975322;28;20039;-80
2022/01/17 04:16:11;;;;;;;3.20;1.80;;;;;;;15.67;25.96;97983.41;4975377;28;20102;-80
2022/01/17 04:18:37;;;;;;;3.30;1.95;;;;;;;15.18;26.93;98004.94;4959582;28;20567;-80
2022/01/17 04:21:04;;;;;;;3.33;1.95;;;;;;;16.71;24.91;97974.78;4956460;28;20027;-80
2022/01/17 04:23:30;;;;;;;3.10;1.58;;;;;;;15.46;26.63;97985.16;4975167;28;20050;-80
2022/01/17 04:25:57;;;;;;;2.65;1.52;;;;;;;16.88;25.06;97987.94;4969023;28;20035;-80
2022/01/17 04:28:23;;;;;;;2.30;1.73;;;;;;;16.89;24.96;97982.03;4974885;28;20398;-80
2022/01/17 04:30:49;;;;;;;3.00;2.33;;;;;;;16.00;26.59;98009.44;4975148;28;20039;-80
2022/01/17 04:33:15;;;;;;;2.40;2.10;;;;;;;15.99;26.60;97993.97;4974809;28;20109;-80
2022/01/17 04:35:43;;;;;;;4.43;2.65;;;;;;;15.22;27.53;97980.91;4994446;28;20026;-80
2022/01/17 04:38:13;;;;;;;5.28;2.47;;;;;;;15.50;27.71;98005.34;4994398;28;20504;-80
2022/01/17 04:40:40;;;;;;;4.60;2.53;;;;;;;15.88;27.57;98002.19;4994486;28;20033;-80
2022/01/17 04:45:45;;;;;;;3.45;2.53;;;;;;;17.20;25.82;97998.00;4989140;28;20380;-80
2022/01/17 04:48:12;;;;;;;4.97;2.63;;;;;;;15.55;27.95;98003.06;4974837;28;20023;-80
2022/01/17 04:50:38;;;;;;;6.00;3.65;;;;;;;16.07;27.41;98003.94;4974940;28;20379;-80
2022/01/17 04:53:04;;;;;;;3.65;2.58;;;;;;;17.04;25.94;97997.53;4993901;28;20031;-80
2022/01/17 04:55:31;;;;;;;6.07;3.55;;;;;;;16.61;26.35;97992.13;4986248;28;20066;-80
2022/01/17 04:57:57;;;;;;;3.17;2.40;;;;;;;16.19;26.89;97992.59;4993825;28;20034;-80
2022/01/17 05:00:25;;;;;;;4.63;3.20;;;;;;;17.27;25.46;98000.00;4994156;28;20125;-80
2022/01/17 05:02:51;;;;;;;4.70;3.22;;;;;;;17.09;25.95;97996.38;4994416;28;20030;-80
2022/01/17 05:05:18;;;;;;;6.55;3.88;;;;;;;17.68;24.68;97993.06;4981569;28;20037;-80
2022/01/17 05:07:44;;;;;;;8.52;4.55;;;;;;;17.64;24.59;97994.22;4974872;28;20372;-80
2022/01/17 05:10:13;;;;;;;6.68;4.03;;;;;;;17.85;24.64;97983.94;4993863;28;20058;-80
2022/01/17 05:12:39;;;;;;;8.10;5.13;;;;;;;18.09;24.10;97968.50;4994509;28;20109;-80
2022/01/17 05:15:22;;;;;;;16.50;3.90;;;;;;;18.20;23.94;97979.63;4994258;28;20035;-80
2022/01/17 05:17:59;;;;;;;9.93;5.30;;;;;;;17.67;24.58;97951.78;4975387;28;20026;-80
2022/01/17 05:20:25;;;;;;;8.50;4.60;;;;;;;17.28;24.87;97946.91;4939651;29;20067;-80
2022/01/17 05:22:51;;;;;;;9.75;5.35;;;;;;;17.91;24.44;97949.06;4954977;29;20023;-80
2022/01/17 05:25:18;;;;;;;12.40;6.60;;;;;;;17.08;25.29;97920.66;4955092;29;20119;-80
2022/01/17 05:27:44;;;;;;;10.10;5.72;;;;;;;17.13;25.50;97958.34;4955178;29;20032;-80
2022/01/17 05:30:14;;;;;;;10.68;5.97;;;;;;;17.19;25.17;97938.16;4955013;29;20403;-80
2022/01/17 05:32:41;;;;;;;11.27;5.80;;;;;;;17.58;24.62;97934.72;4955365;29;20032;-80
2022/01/17 05:35:08;;;;;;;12.35;5.43;;;;;;;18.28;23.68;97928.38;4955076;29;20061;-80
2022/01/17 05:37:35;;;;;;;13.55;6.20;;;;;;;18.59;23.04;97910.91;4955103;29;20035;-80
2022/01/17 05:40:02;;;;;;;10.65;4.35;;;;;;;18.61;23.19;97911.28;4954520;29;20058;-80
2022/01/17 05:42:28;;;;;;;8.07;4.20;;;;;;;17.74;24.11;97893.47;4954812;29;20087;-80
2022/01/17 05:44:54;;;;;;;7.95;4.85;;;;;;;19.47;22.12;97902.19;4954940;28;20039;-80
2022/01/17 05:47:21;;;;;;;6.50;3.60;;;;;;;19.68;21.89;97910.41;4955008;29;20043;-80
2022/01/17 05:49:47;;;;;;;7.88;4.18;;;;;;;18.65;22.98;97903.72;4955227;29;20062;-80
2022/01/17 05:52:14;;;;;;;5.57;3.55;;;;;;;19.28;22.27;97897.88;4955753;28;20067;-80
2022/01/17 05:54:40;;;;;;;5.55;3.85;;;;;;;17.71;24.00;97894.28;4958455;28;20094;-80
2022/01/17 05:57:07;;;;;;;5.65;3.35;;;;;;;18.36;23.56;97889.09;4958542;29;20098;-80
2022/01/17 05:59:33;;;;;;;6.35;3.45;;;;;;;17.69;24.38;97894.66;4958697;28;20035;-80
2022/01/17 06:01:59;;;;;;;6.63;3.78;;;;;;;17.04;25.25;97889.38;4958473;29;20036;-80
2022/01/17 06:04:25;;;;;;;5.85;3.80;;;;;;;18.61;23.38;97873.16;4958488;29;20035;-80
2022/01/17 06:06:51;;;;;;;6.22;3.95;;;;;;;17.09;25.26;97902.84;4957184;29;20027;-80
2022/01/17 06:09:17;;;;;;;7.70;3.85;;;;;;;18.24;24.09;97878.38;4957795;28;20511;-80
2022/01/17 06:11:44;;;;;;;7.18;3.70;;;;;;;17.91;24.24;97882.38;4958404;28;20031;-80
2022/01/17 06:14:15;;;;;;;5.95;3.63;;;;;;;18.19;23.69;97866.88;4956626;29;20051;-80
2022/01/17 06:16:41;;;;;;;5.80;3.97;;;;;;;18.61;23.13;97875.16;4958366;29;20031;-80
2022/01/17 06:19:08;;;;;;;7.10;4.03;;;;;;;19.55;21.90;97869.53;4971095;28;20050;-80
2022/01/17 06:21:34;;;;;;;10.13;5.90;;;;;;;18.47;23.04;97867.66;4977326;28;20038;-80
2022/01/17 06:24:02;;;;;;;7.93;4.53;;;;;;;18.87;22.81;97890.53;4960312;28;20039;-80
2022/01/17 06:26:28;;;;;;;10.05;5.10;;;;;;;17.71;24.00;97872.84;4958070;29;20086;-80
2022/01/17 06:28:54;;;;;;;7.00;4.32;;;;;;;18.36;23.08;97825.16;4957788;29;20106;-80
2022/01/17 06:31:20;;;;;;;8.68;3.72;;;;;;;17.25;24.65;97869.19;4957941;29;20040;-80
2022/01/17 06:33:47;;;;;;;5.00;3.90;;;;;;;17.44;24.86;97863.28;4958384;28;20039;-80
2022/01/17 06:36:13;;;;;;;6.47;3.65;;;;;;;17.92;23.90;97858.97;4957924;29;20035;-80
2022/01/17 06:38:39;;;;;;;5.70;3.25;;;;;;;18.09;23.93;97846.25;4957764;29;20027;-80
2022/01/17 06:41:05;;;;;;;5.50;3.15;;;;;;;17.65;24.19;97820.91;4957852;29;20046;-80
2022/01/17 06:43:31;;;;;;;6.18;3.65;;;;;;;17.17;24.85;97832.34;4957660;29;20035;-80
2022/01/17 06:45:58;;;;;;;6.18;3.25;;;;;;;17.24;24.83;97832.38;4957869;29;20039;-80
2022/01/17 06:48:24;;;;;;;5.25;3.30;;;;;;;17.03;25.18;97842.63;4957730;29;20431;-80
2022/01/17 06:50:50;;;;;;;5.40;2.78;;;;;;;17.28;24.78;97824.84;4958152;28;20050;-80
2022/01/17 06:53:16;;;;;;;3.10;2.20;;;;;;;18.75;22.99;97836.16;4957524;29;20031;-80
2022/01/17 06:55:42;;;;;;;4.72;3.08;;;;;;;17.39;24.35;97788.75;4957514;28;20039;-80
2022/01/17 06:58:09;;;;;;;4.88;3.10;;;;;;;17.74;24.33;97815.75;4957827;29;20023;-80
2022/01/17 07:00:35;;;;;;;4.25;2.90;;;;;;;16.75;25.54;97793.44;4957381;29;20039;-80
2022/01/17 07:03:01;;;;;;;4.53;2.97;;;;;;;16.87;25.48;97789.50;4956824;28;20083;-80
2022/01/17 07:05:27;;;;;;;4.13;2.47;;;;;;;17.35;24.55;97773.28;4956559;29;20039;-80
2022/01/17 07:07:53;;;;;;;4.03;2.88;;;;;;;17.30;24.48;97785.59;4956925;28;20111;-80
2022/01/17 07:10:19;;;;;;;5.03;2.92;;;;;;;17.94;24.13;97759.41;4956674;29;20086;-80
2022/01/17 07:12:46;;;;;;;4.97;2.90;;;;;;;17.51;24.95;97759.81;4957214;29;20539;-80
2022/01/17 07:15:12;;;;;;;4.60;2.60;;;;;;;18.23;24.40;97779.53;4957437;29;20031;-80
2022/01/17 07:17:38;;;;;;;4.03;2.50;;;;;;;18.19;23.98;97798.22;4957097;29;20087;-81
2022/01/17 07:20:05;;;;;;;6.32;3.80;;;;;;;18.09;24.52;97804.56;4956933;29;20043;-80
2022/01/17 07:22:32;;;;;;;4.57;3.10;;;;;;;16.44;26.97;97828.13;4956796;29;20030;-80
2022/01/17 07:25:00;;;;;;;3.85;2.33;;;;;;;15.84;28.23;97847.16;4957356;28;20043;-80
2022/01/17 07:27:26;;;;;;;7.90;3.08;;;;;;;16.50;27.71;97856.22;4976562;28;20034;-80
2022/01/17 07:29:52;;;;;;;5.35;2.83;;;;;;;15.96;28.49;97867.41;4956353;29;20035;-81
2022/01/17 07:32:18;;;;;;;5.35;2.88;;;;;;;16.82;27.27;97871.09;4957007;29;20031;-80
2022/01/17 07:34:44;;;;;;;4.80;2.90;;;;;;;17.26;27.09;97866.06;4956818;29;20476;-80
2022/01/17 07:37:10;;;;;;;7.22;4.03;;;;;;;17.58;26.46;97835.59;4956700;29;20079;-80
2022/01/17 07:39:36;;;;;;;4.78;2.70;;;;;;;16.70;28.25;97826.28;4956979;29;20032;-80
2022/01/17 07:42:02;;;;;;;6.35;3.83;;;;;;;15.93;29.13;97771.28;4956414;29;20039;-80
2022/01/17 07:44:30;;;;;;;7.72;4.20;;;;;;;14.92;31.18;97787.44;4956674;29;20035;-80
2022/01/17 07:47:00;;;;;;;7.53;4.70;;;;;;;15.95;30.02;97775.25;4956961;29;20046;-80
2022/01/17 07:49:26;;;;;;;7.45;4.20;;;;;;;16.92;28.74;97775.25;4957200;29;20030;-80
2022/01/17 07:52:03;;;;;;;7.45;4.82;;;;;;;18.14;26.27;97759.72;4956421;29;20114;-80
2022/01/17 07:54:31;;;;;;;6.85;3.75;;;;;;;17.93;26.52;97766.13;4956381;29;20120;-80
2022/01/17 07:56:59;;;;;;;5.30;3.60;;;;;;;17.51;27.49;97760.63;4938994;28;20058;-80
2022/01/17 07:59:26;;;;;;;7.10;3.47;;;;;;;16.83;28.62;97728.47;4956344;29;20094;-80
2022/01/17 08:01:52;;;;;;;6.80;3.95;;;;;;;17.11;28.19;97698.00;4956604;28;20118;-81
2022/01/17 08:04:18;;;;;;;5.28;3.45;;;;;;;17.31;27.25;97681.75;4956054;29;20042;-81
2022/01/17 08:06:46;;;;;;;4.85;2.97;;;;;;;17.00;28.10;97672.25;4956572;29;20031;-81
2022/01/17 08:09:14;;;;;;;6.05;3.30;;;;;;;17.02;28.44;97671.84;4957309;29;20039;-80
2022/01/17 08:11:40;;;;;;;6.03;3.33;;;;;;;16.88;28.47;97674.63;4956135;29;20114;-81
2022/01/17 08:14:06;;;;;;;6.65;2.45;;;;;;;18.32;26.69;97670.75;4955805;29;20458;-80
2022/01/17 08:16:32;;;;;;;3.35;2.60;;;;;;;17.68;27.04;97648.78;4975196;28;20118;-81
2022/01/17 08:18:58;;;;;;;4.53;3.15;;;;;;;19.46;25.02;97652.81;4986604;28;20042;-81
2022/01/17 08:21:24;;;;;;;5.40;3.67;;;;;;;18.66;25.38;97660.63;4975696;28;20055;-81
2022/01/17 08:23:52;;;;;;;4.60;2.83;;;;;;;19.07;24.80;97647.56;4994629;28;20129;-81
2022/01/17 08:26:19;;;;;;;4.63;2.30;;;;;;;18.50;25.74;97649.22;4994933;28;20089;-80
2022/01/17 08:28:46;;;;;;;4.78;2.83;;;;;;;17.68;26.70;97654.34;4986566;28;20026;-80
2022/01/17 08:31:12;;;;;;;3.83;2.40;;;;;;;18.25;26.18;97668.00;4975460;28;20039;-80
2022/01/17 08:33:38;;;;;;;4.70;2.97;;;;;;;17.32;27.64;97647.25;4974805;28;20076;-80
2022/01/17 08:36:07;;;;;;;4.03;2.78;;;;;;;16.56;28.27;97633.84;4975679;28;20027;-80
2022/01/17 08:38:36;;;;;;;3.83;2.45;;;;;;;17.21;27.18;97614.00;4975298;28;20031;-81
2022/01/17 08:41:02;;;;;;;3.95;2.45;;;;;;;16.90;27.55;97600.94;4974993;28;20027;-81
2022/01/17 08:43:28;;;;;;;3.97;2.38;;;;;;;17.77;26.51;97631.69;4975449;28;20380;-81
2022/01/17 08:45:55;;;;;;;4.22;2.30;;;;;;;17.84;26.42;97631.66;4975027;28;20407;-80
2022/01/17 08:48:21;;;;;;;4.57;2.53;;;;;;;18.36;25.27;97618.69;4975099;28;20030;-80
2022/01/17 08:50:48;;;;;;;6.25;3.25;;;;;;;18.86;24.39;97617.16;4974857;28;20031;-80
2022/01/17 08:53:15;;;;;;;5.05;2.30;;;;;;;18.82;24.58;97579.44;4974963;28;20403;-80
2022/01/17 08:55:45;;;;;;;4.53;2.60;;;;;;;19.23;23.76;97589.38;4973658;28;20479;-80
2022/01/17 08:58:12;;;;;;;4.72;2.90;;;;;;;18.34;24.70;97587.75;4974994;28;20038;-80
2022/01/17 09:00:39;;;;;;;5.18;2.47;;;;;;;17.92;25.06;97591.56;4974744;28;20505;-80
2022/01/17 09:03:06;;;;;;;4.22;2.30;;;;;;;19.09;24.04;97581.19;4974438;28;20038;-80
2022/01/17 09:05:33;;;;;;;6.90;3.20;;;;;;;19.34;23.61;97547.53;4974474;28;20062;-80
2022/01/17 09:08:00;;;;;;;4.80;2.00;;;;;;;19.13;23.48;97533.84;4974656;28;20073;-80
2022/01/17 09:10:27;;;;;;;4.50;2.00;;;;;;;19.45;22.96;97553.00;4974241;28;20035;-80
2022/01/17 09:12:54;;;;;;;3.88;2.00;;;;;;;19.70;22.52;97529.22;4974769;28;20042;-80
2022/01/17 09:15:20;;;;;;;5.47;2.13;;;;;;;18.91;23.65;97538.84;4974721;28;20110;-81
2022/01/17 09:17:46;;;;;;;3.50;2.00;;;;;;;17.30;25.69;97538.66;4974477;28;20035;-80
2022/01/17 09:20:12;;;;;;;3.63;1.92;;;;;;;18.29;24.93;97527.06;4974385;28;20522;-80
2022/01/17 09:22:39;;;;;;;2.67;1.73;;;;;;;18.40;24.86;97513.84;4975056;28;20027;-80
2022/01/17 09:25:06;;;;;;;2.63;1.88;;;;;;;18.02;25.40;97487.16;4974761;28;20034;-80
2022/01/17 09:27:34;;;;;;;2.45;1.60;;;;;;;18.42;24.52;97522.56;4975481;28;20039;-80
2022/01/17 09:30:00;;;;;;;2.60;1.83;;;;;;;19.37;23.46;97526.47;4978517;28;20043;-80
2022/01/17 09:32:26;;;;;;;3.35;2.30;;;;;;;18.46;24.80;97526.94;4978242;28;20042;-80
2022/01/17 09:34:52;;;;;;;3.25;1.70;;;;;;;17.41;26.70;97528.31;4978517;28;20035;-80
2022/01/17 09:37:18;;;;;;;3.30;2.08;;;;;;;17.57;26.60;97520.34;4978306;28;20042;-80
2022/01/17 09:39:44;;;;;;;4.60;2.03;;;;;;;17.56;26.22;97491.00;4978587;28;20117;-81
2022/01/17 09:42:11;;;;;;;5.00;2.22;;;;;;;17.83;26.25;97486.47;4978413;28;20037;-80
2022/01/17 09:44:38;;;;;;;4.13;2.30;;;;;;;17.56;26.83;97471.59;4978416;28;20394;-80
2022/01/17 09:47:09;;;;;;;3.45;1.77;;;;;;;16.37;29.20;97478.22;4978222;28;20115;-80
2022/01/17 09:49:38;;;;;;;3.17;2.30;;;;;;;16.11;29.73;97493.28;4976055;28;20434;-80
2022/01/17 09:52:34;;;;;;;4.25;2.15;;;;;;;16.62;29.34;97489.34;4978116;28;20027;-80
2022/01/17 09:55:13;;;;;;;3.45;1.73;;;;;;;17.76;27.80;97480.22;4987550;28;20049;-80
2022/01/17 09:57:53;;;;;;;3.85;1.60;;;;;;;18.53;26.38;97462.94;4982024;28;20035;-80
2022/01/17 10:00:26;;;;;;;4.47;2.23;;;;;;;17.31;27.77;97450.69;4978063;28;20046;-80
2022/01/17 10:02:54;;;;;;;4.35;2.25;;;;;;;17.45;28.28;97462.50;4978203;28;20031;-80
2022/01/17 10:05:21;;;;;;;2.90;1.80;;;;;;;16.55;29.22;97462.41;4977852;28;20034;-80
2022/01/17 10:08:09;;;;;;;6.30;2.65;;;;;;;15.65;31.31;97473.03;4977776;28;20038;-80
2022/01/17 10:10:54;;;;;;;3.92;2.17;;;;;;;16.28;30.71;97466.75;4977680;28;20391;-80
2022/01/17 10:13:31;;;;;;;5.43;3.03;;;;;;;17.01;29.17;97462.31;4977648;28;20031;-80
2022/01/17 10:16:11;;;;;;;4.90;2.25;;;;;;;16.90;29.36;97412.41;4977506;28;20035;-80
2022/01/17 10:18:53;;;;;;;4.17;2.20;;;;;;;18.07;27.91;97422.81;4977420;28;20055;-80
2022/01/17 10:21:50;;;;;;;4.03;1.85;;;;;;;17.11;28.95;97412.31;4977482;28;20562;-80
2022/01/17 10:35:37;;;;;;;3.30;2.17;;;;;;;16.01;30.79;97385.31;4977429;28;20066;-80
2022/01/17 10:38:06;;;;;;;3.97;2.35;;;;;;;16.32;30.17;97351.22;4976907;28;20066;-81
2022/01/17 10:40:39;;;;;;;5.45;2.72;;;;;;;16.35;30.06;97351.22;4977458;28;20034;-80
2022/01/17 10:43:17;;;;;;;3.28;2.25;;;;;;;16.37;30.18;97370.19;4976194;28;20031;-81
2022/01/17 10:45:43;;;;;;;3.03;1.83;;;;;;;15.92;31.01;97366.31;4976946;28;20128;-80
2022/01/17 10:48:10;;;;;;;3.47;1.98;;;;;;;16.42;30.42;97359.50;4977044;28;20379;-80
2022/01/17 10:50:43;;;;;;;3.42;1.80;;;;;;;15.77;31.30;97356.44;4977388;28;20391;-81
2022/01/17 10:53:11;;;;;;;3.65;2.17;;;;;;;16.31;30.53;97360.72;4993014;28;20023;-81
2022/01/17 10:55:59;;;;;;;3.15;1.98;;;;;;;16.53;30.26;97378.88;4977598;28;20035;-80
2022/01/17 10:58:31;;;;;;;1.85;1.48;;;;;;;16.20;30.83;97368.25;4976645;28;20035;-80
2022/01/17 11:01:00;;;;;;;4.75;1.92;;;;;;;16.55;30.17;97365.41;4976573;28;20066;-81
2022/01/17 11:03:28;;;;;;;3.10;2.00;;;;;;;16.03;30.75;97366.31;4960113;28;20046;-80
2022/01/17 11:05:57;;;;;;;2.00;1.40;;;;;;;16.27;30.90;97368.22;4976492;28;20482;-80
2022/01/17 11:08:26;;;;;;;2.25;1.85;;;;;;;15.37;32.36;97354.81;4996412;28;20042;-80
2022/01/17 11:10:54;;;;;;;6.00;2.85;;;;;;;15.71;31.73;97344.97;4996057;28;20085;-80
2022/01/17 11:13:24;;;;;;;3.10;1.88;;;;;;;16.16;31.18;97334.25;4978852;28;20088;-81
2022/01/17 11:16:03;;;;;;;4.03;2.13;;;;;;;15.90;32.04;97324.41;4991145;28;20023;-81
2022/01/17 11:18:31;;;;;;;4.10;2.45;;;;;;;15.83;32.22;97357.63;4976021;28;20050;-81
2022/01/17 11:21:10;;;;;;;6.30;2.92;;;;;;;16.14;31.85;97362.34;4977022;28;20559;-81
2022/01/17 11:23:37;;;;;;;3.55;3.10;;;;;;;15.88;31.89;97358.03;4995101;28;20038;-81
2022/01/17 11:26:05;;;;;;;4.18;2.60;;;;;;;16.05;31.43;97308.56;4996164;28;20026;-81
2022/01/17 11:28:34;;;;;;;4.32;2.70;;;;;;;14.23;34.90;97327.19;4976224;28;20026;-82
2022/01/17 11:31:02;;;;;;;4.47;2.95;;;;;;;14.23;35.38;97360.31;4976240;28;20097;-82
2022/01/17 11:33:28;;;;;;;4.90;2.65;;;;;;;13.65;36.38;97366.59;4976204;28;20463;-82
2022/01/17 11:35:55;;;;;;;3.92;2.42;;;;;;;13.67;36.90;97353.22;4975880;28;20031;-82
2022/01/17 11:38:28;;;;;;;9.90;2.90;;;;;;;14.56;35.22;97343.53;4978800;28;20030;-82
2022/01/17 11:40:56;;;;;;;4.18;2.72;;;;;;;15.03;34.30;97323.94;4995573;28;20495;-82
2022/01/17 11:43:35;;;;;;;6.07;3.33;;;;;;;14.90;34.26;97339.31;4979256;28;20402;-82
2022/01/17 11:46:28;;;;;;;4.90;3.13;;;;;;;16.33;32.17;97322.34;4976247;28;20491;-82
2022/01/17 11:49:02;;;;;;;3.45;2.25;;;;;;;16.35;31.64;97336.56;4969905;28;20063;-82
2022/01/17 11:51:57;;;;;;;5.30;3.50;;;;;;;16.13;32.32;97351.63;4975465;28;20035;-82
2022/01/17 11:54:26;;;;;;;4.72;3.08;;;;;;;16.32;31.84;97360.31;4963450;28;20050;-83
2022/01/17 11:56:58;;;;;;;5.00;2.47;;;;;;;15.80;32.51;97337.06;4975803;28;20483;-83
2022/01/17 11:59:41;;;;;;;5.15;2.88;;;;;;;15.95;32.13;97357.22;4975783;28;20125;-82
2022/01/17 12:02:28;;;;;;;6.43;3.50;;;;;;;15.17;33.89;97332.25;4975955;28;20066;-83